createdAt,value
2018-05-29T00:00:51.595Z,26.00
2018-05-29T00:03:19.042Z,26.00
2018-05-29T00:05:46.606Z,26.00
2018-05-29T00:08:14.055Z,26.00
2018-05-29T00:10:41.615Z,26.00
2018-05-29T00:13:09.344Z,26.00
2018-05-29T00:15:36.808Z,26.00
2018-05-29T00:18:04.565Z,26.00
2018-05-29T00:20:32.056Z,26.00
2018-05-29T00:22:59.602Z,26.00
2018-05-29T00:25:27.163Z,26.10
2018-05-29T00:27:54.630Z,26.00
2018-05-29T00:30:22.175Z,26.10
2018-05-29T00:32:49.629Z,26.00
2018-05-29T00:35:17.082Z,26.00
2018-05-29T00:37:44.527Z,26.00
2018-05-29T00:40:11.989Z,26.00
2018-05-29T00:42:39.456Z,26.00
2018-05-29T00:45:07.319Z,26.00
2018-05-29T00:47:34.849Z,26.00
2018-05-29T00:50:02.287Z,26.00
2018-05-29T00:52:29.791Z,26.00
2018-05-29T00:55:08.974Z,26.00
2018-05-29T00:57:36.419Z,26.00
2018-05-29T01:00:04.672Z,26.00
2018-05-29T01:02:32.215Z,26.00
2018-05-29T01:04:59.736Z,26.00
2018-05-29T01:07:27.226Z,26.00
2018-05-29T01:09:54.779Z,26.00
2018-05-29T01:12:22.338Z,26.00
2018-05-29T01:14:49.814Z,26.00
2018-05-29T01:17:17.279Z,26.00
2018-05-29T01:19:44.882Z,26.00
2018-05-29T01:22:12.322Z,26.00
2018-05-29T01:24:39.766Z,26.00
2018-05-29T01:27:07.987Z,26.00
2018-05-29T01:29:35.437Z,26.00
2018-05-29T01:32:02.889Z,26.00
2018-05-29T01:34:30.358Z,26.00
2018-05-29T01:36:57.918Z,26.00
2018-05-29T01:39:25.367Z,26.00
2018-05-29T01:41:52.831Z,26.00
2018-05-29T01:44:20.291Z,26.00
2018-05-29T01:46:47.749Z,26.00
2018-05-29T01:49:15.199Z,26.00
2018-05-29T01:51:42.660Z,26.00
2018-05-29T01:54:10.230Z,26.00
2018-05-29T01:56:37.746Z,26.00
2018-05-29T01:59:05.204Z,26.00
2018-05-29T02:01:32.757Z,26.00
2018-05-29T02:04:00.251Z,26.00
2018-05-29T02:06:27.708Z,26.00
2018-05-29T02:08:55.261Z,26.00
2018-05-29T02:11:22.819Z,26.00
2018-05-29T02:13:50.379Z,26.00
2018-05-29T02:16:17.923Z,26.00
2018-05-29T02:18:45.362Z,26.00
2018-05-29T02:21:12.819Z,26.00
2018-05-29T02:23:40.303Z,26.00
2018-05-29T02:26:07.772Z,26.00
2018-05-29T02:28:35.227Z,26.00
2018-05-29T02:31:02.776Z,26.00
2018-05-29T02:33:30.219Z,26.00
2018-05-29T02:35:57.792Z,26.00
2018-05-29T02:38:25.354Z,26.00
2018-05-29T02:40:53.587Z,26.00
2018-05-29T02:43:21.028Z,26.00
2018-05-29T02:45:48.487Z,26.00
2018-05-29T02:48:15.946Z,26.00
2018-05-29T02:50:43.416Z,26.00
2018-05-29T02:53:10.869Z,26.00
2018-05-29T02:55:38.316Z,26.00
2018-05-29T02:58:05.807Z,25.90
2018-05-29T03:00:33.251Z,25.90
2018-05-29T03:03:00.791Z,25.90
2018-05-29T03:05:28.279Z,25.90
2018-05-29T03:07:55.743Z,25.90
2018-05-29T03:10:23.495Z,26.00
2018-05-29T03:12:51.059Z,25.90
2018-05-29T03:15:18.788Z,25.90
2018-05-29T03:17:46.243Z,25.90
2018-05-29T03:20:13.687Z,25.90
2018-05-29T03:22:41.184Z,25.90
2018-05-29T03:25:08.639Z,25.90
2018-05-29T03:27:36.211Z,25.90
2018-05-29T03:30:03.652Z,25.90
2018-05-29T03:32:31.215Z,25.90
2018-05-29T03:34:58.763Z,25.90
2018-05-29T03:37:26.234Z,25.90
2018-05-29T03:39:53.814Z,25.80
2018-05-29T03:42:21.274Z,25.90
2018-05-29T03:44:48.724Z,25.80
2018-05-29T03:47:16.180Z,25.90
2018-05-29T03:49:43.631Z,25.80
2018-05-29T03:52:11.175Z,25.80
2018-05-29T03:54:38.619Z,25.80
2018-05-29T03:57:06.183Z,25.80
2018-05-29T03:59:33.628Z,25.80
2018-05-29T04:02:01.171Z,25.80
2018-05-29T04:04:28.621Z,25.80
2018-05-29T04:06:56.115Z,25.90
2018-05-29T04:09:23.744Z,25.90
2018-05-29T04:11:52.471Z,25.90
2018-05-29T04:14:19.924Z,25.80
2018-05-29T04:16:47.471Z,25.80
2018-05-29T04:19:14.931Z,25.80
2018-05-29T04:21:42.516Z,25.80
2018-05-29T04:24:10.771Z,25.90
2018-05-29T04:26:38.316Z,25.80
2018-05-29T04:29:06.148Z,25.90
2018-05-29T04:31:33.597Z,25.90
2018-05-29T04:34:01.825Z,25.90
2018-05-29T04:36:29.235Z,25.90
2018-05-29T04:38:56.695Z,25.90
2018-05-29T04:41:24.143Z,25.90
2018-05-29T04:43:51.604Z,25.90
2018-05-29T04:46:19.083Z,25.90
2018-05-29T04:48:46.534Z,25.90
2018-05-29T04:51:13.991Z,26.00
2018-05-29T04:53:41.447Z,25.90
2018-05-29T04:56:08.904Z,25.90
2018-05-29T04:58:36.359Z,26.00
2018-05-29T05:01:03.819Z,26.00
2018-05-29T05:03:31.283Z,26.00
2018-05-29T05:05:59.267Z,26.00
2018-05-29T05:08:26.731Z,26.10
2018-05-29T05:10:54.502Z,26.10
2018-05-29T05:13:22.731Z,26.10
2018-05-29T05:15:50.207Z,26.10
2018-05-29T05:18:18.432Z,26.10
2018-05-29T05:20:45.939Z,26.10
2018-05-29T05:23:13.484Z,26.10
2018-05-29T05:25:40.939Z,26.10
2018-05-29T05:28:08.411Z,26.10
2018-05-29T05:30:38.123Z,26.20
2018-05-29T05:33:05.579Z,26.20
2018-05-29T05:35:33.127Z,26.20
2018-05-29T05:38:00.587Z,26.20
2018-05-29T05:40:28.039Z,26.20
2018-05-29T05:42:55.502Z,26.20
2018-05-29T05:45:22.946Z,26.20
2018-05-29T05:47:50.410Z,26.20
2018-05-29T05:50:18.058Z,26.30
2018-05-29T05:52:45.551Z,26.30
2018-05-29T05:55:13.003Z,26.30
2018-05-29T05:57:41.244Z,26.20
2018-05-29T06:00:08.699Z,26.20
2018-05-29T06:02:36.155Z,26.30
2018-05-29T06:05:03.623Z,26.20
2018-05-29T06:07:31.067Z,26.20
2018-05-29T06:09:58.627Z,26.30
2018-05-29T06:12:26.178Z,26.20
2018-05-29T06:14:53.647Z,26.30
2018-05-29T06:17:21.092Z,26.30
2018-05-29T06:19:48.655Z,26.30
2018-05-29T06:22:16.104Z,26.30
2018-05-29T06:24:43.558Z,26.30
2018-05-29T06:27:11.014Z,26.30
2018-05-29T06:29:38.466Z,26.30
2018-05-29T06:32:05.935Z,26.40
2018-05-29T06:34:33.392Z,26.40
2018-05-29T06:37:00.943Z,26.40
2018-05-29T06:39:28.506Z,26.40
2018-05-29T06:41:56.052Z,26.40
2018-05-29T06:44:23.507Z,26.40
2018-05-29T06:46:50.975Z,26.40
2018-05-29T06:49:19.041Z,26.40
2018-05-29T06:51:46.491Z,26.40
2018-05-29T06:54:14.068Z,26.40
2018-05-29T06:56:41.686Z,26.40
2018-05-29T06:59:09.178Z,26.40
2018-05-29T07:01:36.733Z,26.40
2018-05-29T07:04:04.292Z,26.50
2018-05-29T07:06:31.743Z,26.50
2018-05-29T07:08:59.219Z,26.50
2018-05-29T07:11:26.755Z,26.50
2018-05-29T07:13:54.316Z,26.50
2018-05-29T07:16:21.781Z,26.40
2018-05-29T07:18:49.231Z,26.50
2018-05-29T07:21:16.679Z,26.40
2018-05-29T07:23:44.244Z,26.40
2018-05-29T07:26:11.695Z,26.50
2018-05-29T07:28:39.152Z,26.50
2018-05-29T07:31:06.612Z,26.50
2018-05-29T07:33:34.071Z,26.40
2018-05-29T07:36:01.521Z,26.50
2018-05-29T07:38:29.084Z,26.50
2018-05-29T07:40:56.544Z,26.50
2018-05-29T07:43:24.764Z,26.40
2018-05-29T07:45:52.980Z,26.40
2018-05-29T07:48:20.447Z,26.40
2018-05-29T07:50:47.995Z,26.40
2018-05-29T07:53:15.462Z,26.50
2018-05-29T07:55:42.912Z,26.40
2018-05-29T07:58:10.463Z,26.50
2018-05-29T08:00:37.920Z,26.50
2018-05-29T08:03:05.367Z,26.40
2018-05-29T08:05:32.845Z,26.50
2018-05-29T08:08:00.287Z,26.50
2018-05-29T08:10:27.865Z,26.50
2018-05-29T08:12:55.314Z,26.50
2018-05-29T08:15:22.764Z,26.50
2018-05-29T08:17:50.215Z,26.40
2018-05-29T08:20:17.771Z,26.40
2018-05-29T08:22:45.299Z,26.50
2018-05-29T08:25:12.747Z,26.40
2018-05-29T08:27:40.202Z,26.50
2018-05-29T08:30:07.664Z,26.50
2018-05-29T08:32:35.112Z,26.50
2018-05-29T08:35:02.611Z,26.40
2018-05-29T08:37:30.055Z,26.50
2018-05-29T08:39:57.506Z,26.50
2018-05-29T08:42:24.950Z,26.50
2018-05-29T08:44:52.408Z,26.50
2018-05-29T08:47:19.852Z,26.50
2018-05-29T08:49:52.327Z,26.50
2018-05-29T08:52:19.784Z,26.50
2018-05-29T08:54:47.271Z,26.50
2018-05-29T08:57:14.729Z,26.50
2018-05-29T08:59:42.287Z,26.50
2018-05-29T09:02:09.735Z,26.50
2018-05-29T09:04:37.199Z,26.50
2018-05-29T09:07:04.655Z,26.50
2018-05-29T09:09:32.103Z,26.50
2018-05-29T09:11:59.567Z,26.50
2018-05-29T09:14:27.019Z,26.50
2018-05-29T09:16:55.036Z,26.50
2018-05-29T09:19:23.716Z,26.50
2018-05-29T09:21:51.952Z,26.50
2018-05-29T09:24:19.395Z,26.50
2018-05-29T09:26:46.852Z,26.50
2018-05-29T09:29:14.296Z,26.50
2018-05-29T09:31:41.747Z,26.50
2018-05-29T09:34:09.195Z,26.50
2018-05-29T09:36:36.680Z,26.50
2018-05-29T09:39:04.142Z,26.50
2018-05-29T09:41:31.718Z,26.50
2018-05-29T09:43:59.145Z,26.50
2018-05-29T09:46:26.608Z,26.50
2018-05-29T09:48:54.052Z,26.50
2018-05-29T09:51:21.509Z,26.50
2018-05-29T09:53:48.964Z,26.50
2018-05-29T09:56:16.411Z,26.50
2018-05-29T09:58:43.863Z,26.50
2018-05-29T10:01:11.344Z,26.60
2018-05-29T10:03:38.791Z,26.50
2018-05-29T10:06:06.243Z,26.50
2018-05-29T10:08:33.691Z,26.50
2018-05-29T10:11:01.151Z,26.60
2018-05-29T10:13:28.619Z,26.60
2018-05-29T10:15:56.193Z,26.60
2018-05-29T10:18:23.743Z,26.60
2018-05-29T10:20:51.205Z,26.60
2018-05-29T10:23:18.664Z,26.50
2018-05-29T10:25:46.099Z,26.60
2018-05-29T10:28:13.551Z,26.60
2018-05-29T10:30:41.007Z,26.60
2018-05-29T10:33:08.471Z,26.60
2018-05-29T10:35:36.031Z,26.60
2018-05-29T10:38:03.597Z,26.50
2018-05-29T10:40:31.051Z,26.60
2018-05-29T10:42:58.499Z,26.60
2018-05-29T10:45:25.950Z,26.60
2018-05-29T10:47:53.419Z,26.60
2018-05-29T10:50:20.871Z,26.60
2018-05-29T10:52:48.320Z,26.60
2018-05-29T10:55:15.782Z,26.60
2018-05-29T10:57:43.244Z,26.60
2018-05-29T11:00:10.770Z,26.60
2018-05-29T11:02:38.525Z,26.60
2018-05-29T11:05:06.008Z,26.60
2018-05-29T11:07:33.467Z,26.60
2018-05-29T11:10:01.026Z,26.60
2018-05-29T11:12:28.579Z,26.60
2018-05-29T11:14:56.040Z,26.70
2018-05-29T11:17:23.599Z,26.70
2018-05-29T11:19:51.060Z,26.70
2018-05-29T11:22:18.511Z,26.60
2018-05-29T11:24:45.955Z,26.70
2018-05-29T11:27:13.415Z,26.70
2018-05-29T11:29:40.871Z,26.70
2018-05-29T11:32:08.331Z,26.70
2018-05-29T11:34:35.774Z,26.70
2018-05-29T11:37:03.234Z,26.70
2018-05-29T11:39:30.679Z,26.70
2018-05-29T11:41:58.156Z,26.70
2018-05-29T11:44:25.608Z,26.70
2018-05-29T11:46:53.187Z,26.70
2018-05-29T11:49:21.452Z,26.70
2018-05-29T11:51:48.999Z,26.70
2018-05-29T11:54:16.563Z,26.70
2018-05-29T11:56:44.111Z,26.70
2018-05-29T11:59:11.563Z,26.70
2018-05-29T12:01:39.139Z,26.70
2018-05-29T12:04:06.578Z,26.70
2018-05-29T12:06:34.042Z,26.70
2018-05-29T12:09:01.566Z,26.70
2018-05-29T12:11:29.009Z,26.70
2018-05-29T12:13:56.454Z,26.70
2018-05-29T12:16:23.963Z,26.80
2018-05-29T12:18:51.466Z,26.70
2018-05-29T12:21:18.979Z,26.70
2018-05-29T12:23:46.544Z,26.80
2018-05-29T12:26:13.997Z,26.80
2018-05-29T12:28:41.456Z,26.80
2018-05-29T12:31:09.051Z,26.80
2018-05-29T12:33:37.260Z,26.80
2018-05-29T12:36:04.738Z,26.70
2018-05-29T12:38:32.199Z,26.80
2018-05-29T12:40:59.772Z,26.80
2018-05-29T12:43:27.315Z,26.80
2018-05-29T12:45:54.759Z,26.80
2018-05-29T12:48:22.219Z,26.80
2018-05-29T12:50:49.691Z,26.80
2018-05-29T12:53:17.271Z,26.80
2018-05-29T12:55:44.758Z,26.80
2018-05-29T12:58:12.195Z,26.80
2018-05-29T13:00:39.760Z,26.80
2018-05-29T13:03:07.984Z,26.80
2018-05-29T13:05:36.935Z,26.80
2018-05-29T13:08:04.391Z,26.80
2018-05-29T13:10:31.879Z,26.80
2018-05-29T13:12:59.440Z,26.80
2018-05-29T13:15:26.993Z,26.80
2018-05-29T13:17:54.443Z,26.80
2018-05-29T13:20:21.892Z,26.80
2018-05-29T13:22:49.368Z,26.80
2018-05-29T13:25:16.808Z,26.80
2018-05-29T13:27:44.347Z,26.80
2018-05-29T13:30:11.827Z,26.80
2018-05-29T13:32:39.349Z,26.80
2018-05-29T13:35:07.531Z,26.80
2018-05-29T13:37:34.988Z,26.80
2018-05-29T13:40:02.467Z,26.80
2018-05-29T13:42:29.918Z,26.80
2018-05-29T13:44:57.371Z,26.80
2018-05-29T13:47:24.851Z,26.80
2018-05-29T13:49:52.396Z,26.90
2018-05-29T13:52:19.850Z,26.90
2018-05-29T13:54:47.378Z,26.90
2018-05-29T13:57:14.833Z,26.90
2018-05-29T13:59:42.319Z,26.90
2018-05-29T14:02:09.775Z,26.90
2018-05-29T14:04:37.222Z,26.90
2018-05-29T14:07:04.684Z,26.90
2018-05-29T14:09:32.139Z,26.90
2018-05-29T14:11:59.699Z,26.90
2018-05-29T14:14:27.152Z,26.90
2018-05-29T14:16:54.604Z,26.90
2018-05-29T14:19:22.067Z,26.90
2018-05-29T14:21:49.625Z,26.90
2018-05-29T14:24:17.181Z,26.90
2018-05-29T14:26:44.631Z,26.90
2018-05-29T14:29:12.086Z,26.90
2018-05-29T14:31:39.544Z,26.90
2018-05-29T14:34:07.003Z,27.00
2018-05-29T14:36:34.463Z,26.90
2018-05-29T14:39:01.916Z,27.00
2018-05-29T14:41:29.371Z,27.00
2018-05-29T14:43:56.870Z,27.00
2018-05-29T14:46:24.283Z,26.90
2018-05-29T14:48:51.735Z,26.90
2018-05-29T14:51:19.191Z,27.00
2018-05-29T14:53:46.762Z,27.00
2018-05-29T14:56:14.281Z,27.00
2018-05-29T14:58:41.798Z,27.00
2018-05-29T15:01:09.231Z,27.00
2018-05-29T15:03:36.688Z,27.00
2018-05-29T15:06:04.134Z,27.00
2018-05-29T15:08:31.695Z,27.00
2018-05-29T15:10:59.347Z,27.00
2018-05-29T15:13:26.909Z,27.00
2018-05-29T15:15:54.360Z,27.00
2018-05-29T15:18:21.924Z,27.00
2018-05-29T15:20:49.367Z,27.00
2018-05-29T15:23:16.821Z,27.00
2018-05-29T15:25:44.286Z,27.00
2018-05-29T15:28:11.734Z,27.00
2018-05-29T15:30:39.189Z,27.00
2018-05-29T15:33:06.639Z,27.00
2018-05-29T15:35:34.078Z,27.00
2018-05-29T15:38:01.563Z,27.00
2018-05-29T15:40:29.013Z,27.00
2018-05-29T15:42:56.463Z,27.00
2018-05-29T15:45:23.918Z,27.00
2018-05-29T15:47:51.390Z,27.00
2018-05-29T15:50:18.944Z,27.00
2018-05-29T15:52:46.412Z,27.00
2018-05-29T15:55:14.032Z,27.00
2018-05-29T15:57:41.470Z,27.00
2018-05-29T16:00:08.919Z,27.00
2018-05-29T16:02:36.423Z,27.00
2018-05-29T16:05:03.875Z,27.00
2018-05-29T16:07:31.332Z,27.00
2018-05-29T16:09:58.795Z,27.00
2018-05-29T16:12:26.272Z,27.00
2018-05-29T16:14:53.712Z,27.00
2018-05-29T16:17:21.260Z,27.00
2018-05-29T16:19:48.820Z,27.00
2018-05-29T16:22:16.262Z,27.00
2018-05-29T16:24:43.719Z,27.00
2018-05-29T16:27:11.176Z,27.00
2018-05-29T16:29:38.638Z,27.00
2018-05-29T16:32:06.105Z,27.00
2018-05-29T16:34:35.156Z,27.10
2018-05-29T16:37:02.539Z,27.00
2018-05-29T16:39:30.110Z,27.10
2018-05-29T16:41:57.551Z,27.00
2018-05-29T16:44:25.007Z,27.00
2018-05-29T16:46:52.456Z,27.10
2018-05-29T16:49:19.911Z,27.00
2018-05-29T16:51:47.346Z,27.00
2018-05-29T16:54:14.809Z,27.10
2018-05-29T16:56:42.699Z,27.00
2018-05-29T16:59:10.258Z,27.10
2018-05-29T17:01:37.715Z,27.10
2018-05-29T17:04:05.271Z,27.10
2018-05-29T17:06:32.727Z,27.00
2018-05-29T17:09:00.187Z,27.00
2018-05-29T17:11:27.638Z,27.00
2018-05-29T17:13:55.193Z,27.00
2018-05-29T17:16:22.636Z,27.00
2018-05-29T17:18:50.104Z,27.00
2018-05-29T17:21:17.634Z,27.00
2018-05-29T17:23:45.079Z,27.00
2018-05-29T17:26:12.545Z,27.00
2018-05-29T17:28:40.012Z,27.00
2018-05-29T17:31:07.455Z,27.00
2018-05-29T17:33:34.913Z,27.00
2018-05-29T17:36:02.371Z,27.10
2018-05-29T17:38:29.825Z,27.00
2018-05-29T17:40:57.279Z,27.00
2018-05-29T17:43:24.759Z,27.00
2018-05-29T17:45:52.211Z,27.00
2018-05-29T17:48:19.675Z,27.00
2018-05-29T17:50:47.230Z,27.00
2018-05-29T17:53:14.688Z,27.00
2018-05-29T17:55:42.150Z,27.00
2018-05-29T17:58:09.603Z,27.00
2018-05-29T18:00:37.170Z,27.00
2018-05-29T18:03:04.616Z,27.10
2018-05-29T18:05:32.067Z,27.00
2018-05-29T18:07:59.527Z,27.00
2018-05-29T18:10:27.006Z,27.00
2018-05-29T18:12:54.540Z,27.00
2018-05-29T18:15:22.105Z,27.00
2018-05-29T18:17:49.555Z,27.00
2018-05-29T18:20:17.012Z,27.00
2018-05-29T18:22:44.455Z,27.00
2018-05-29T18:25:11.911Z,27.00
2018-05-29T18:27:39.367Z,27.00
2018-05-29T18:30:06.825Z,27.00
2018-05-29T18:32:34.270Z,27.00
2018-05-29T18:35:01.755Z,27.00
2018-05-29T18:37:29.191Z,27.00
2018-05-29T18:39:56.652Z,27.00
2018-05-29T18:42:24.105Z,27.00
2018-05-29T18:44:51.671Z,27.00
2018-05-29T18:47:19.119Z,27.00
2018-05-29T18:49:46.579Z,27.00
2018-05-29T18:52:14.038Z,27.00
2018-05-29T18:54:41.594Z,27.00
2018-05-29T18:57:09.044Z,27.00
2018-05-29T18:59:36.500Z,27.00
2018-05-29T19:02:03.946Z,27.00
2018-05-29T19:04:32.230Z,27.00
2018-05-29T19:06:59.679Z,27.00
2018-05-29T19:09:27.143Z,27.00
2018-05-29T19:11:54.599Z,27.00
2018-05-29T19:14:22.042Z,27.00
2018-05-29T19:16:49.564Z,27.00
2018-05-29T19:19:16.951Z,27.00
2018-05-29T19:21:44.419Z,27.00
2018-05-29T19:24:11.979Z,27.00
2018-05-29T19:26:39.436Z,27.00
2018-05-29T19:29:07.168Z,27.00
2018-05-29T19:31:34.620Z,27.00
2018-05-29T19:34:02.064Z,27.00
2018-05-29T19:36:29.564Z,27.00
2018-05-29T19:38:57.016Z,27.00
2018-05-29T19:41:24.475Z,27.00
2018-05-29T19:43:51.918Z,27.00
2018-05-29T19:46:19.387Z,27.00
2018-05-29T19:48:47.616Z,27.00
2018-05-29T19:51:15.107Z,26.90
2018-05-29T19:53:42.575Z,27.00
2018-05-29T19:56:10.032Z,26.90
2018-05-29T19:58:37.550Z,26.90
2018-05-29T20:01:04.995Z,27.00
2018-05-29T20:03:32.444Z,27.00
2018-05-29T20:05:59.911Z,26.90
2018-05-29T20:08:27.349Z,27.00
2018-05-29T20:10:55.570Z,26.90
2018-05-29T20:13:23.013Z,26.90
2018-05-29T20:15:50.463Z,26.90
2018-05-29T20:18:17.915Z,26.90
2018-05-29T20:20:45.363Z,26.90
2018-05-29T20:23:12.862Z,26.90
2018-05-29T20:25:40.315Z,26.90
2018-05-29T20:28:07.770Z,26.90
2018-05-29T20:30:35.215Z,26.90
2018-05-29T20:33:02.676Z,26.90
2018-05-29T20:35:30.239Z,26.90
2018-05-29T20:37:57.689Z,26.90
2018-05-29T20:40:25.152Z,26.90
2018-05-29T20:42:52.595Z,26.90
2018-05-29T20:45:20.061Z,26.90
2018-05-29T20:47:48.360Z,26.90
2018-05-29T20:50:15.892Z,26.90
2018-05-29T20:52:43.347Z,26.90
2018-05-29T20:55:11.077Z,26.90
2018-05-29T20:57:38.566Z,26.90
2018-05-29T21:00:06.013Z,26.90
2018-05-29T21:02:33.459Z,26.90
2018-05-29T21:05:00.903Z,26.90
2018-05-29T21:07:28.358Z,26.90
2018-05-29T21:09:55.839Z,26.90
2018-05-29T21:12:23.295Z,26.90
2018-05-29T21:14:50.751Z,26.90
2018-05-29T21:17:18.210Z,26.90
2018-05-29T21:19:45.655Z,26.90
2018-05-29T21:22:13.150Z,26.90
2018-05-29T21:24:40.571Z,26.90
2018-05-29T21:27:08.129Z,26.90
2018-05-29T21:29:35.583Z,26.90
2018-05-29T21:32:03.145Z,27.00
2018-05-29T21:34:30.594Z,27.00
2018-05-29T21:36:58.056Z,27.00
2018-05-29T21:39:25.516Z,27.00
2018-05-29T21:41:53.280Z,27.00
2018-05-29T21:44:20.803Z,27.00
2018-05-29T21:46:48.292Z,27.00
2018-05-29T21:49:15.843Z,27.00
2018-05-29T21:51:43.301Z,27.00
2018-05-29T21:54:10.755Z,27.10
2018-05-29T21:56:38.208Z,27.00
2018-05-29T21:59:05.667Z,27.00
2018-05-29T22:01:33.119Z,27.00
2018-05-29T22:04:03.559Z,26.90
2018-05-29T22:06:31.019Z,26.90
2018-05-29T22:08:58.560Z,26.90
2018-05-29T22:11:26.119Z,26.90
2018-05-29T22:13:53.686Z,26.90
2018-05-29T22:16:21.137Z,26.90
2018-05-29T22:18:48.688Z,26.90
2018-05-29T22:21:16.153Z,26.90
2018-05-29T22:23:43.605Z,26.90
2018-05-29T22:26:11.054Z,26.90
2018-05-29T22:28:38.583Z,26.90
2018-05-29T22:31:06.015Z,26.80
2018-05-29T22:33:33.526Z,26.80
2018-05-29T22:36:00.982Z,26.80
2018-05-29T22:38:28.439Z,26.80
2018-05-29T22:40:55.892Z,26.80
2018-05-29T22:43:23.347Z,26.80
2018-05-29T22:45:50.803Z,26.80
2018-05-29T22:48:18.367Z,26.80
2018-05-29T22:50:45.823Z,26.80
2018-05-29T22:53:13.384Z,26.80
2018-05-29T22:55:40.839Z,26.80
2018-05-29T22:58:08.298Z,26.80
2018-05-29T23:00:36.511Z,26.80
2018-05-29T23:03:04.020Z,26.80
2018-05-29T23:05:31.471Z,26.80
2018-05-29T23:07:58.919Z,26.80
2018-05-29T23:10:26.363Z,26.70
2018-05-29T23:12:53.847Z,26.80
2018-05-29T23:15:21.290Z,26.80
2018-05-29T23:17:48.743Z,26.80
2018-05-29T23:20:16.207Z,26.80
2018-05-29T23:22:43.671Z,26.80
2018-05-29T23:25:11.218Z,26.70
2018-05-29T23:27:38.688Z,26.70
2018-05-29T23:30:06.136Z,26.70
2018-05-29T23:32:33.592Z,26.70
2018-05-29T23:35:01.144Z,26.70
2018-05-29T23:37:28.604Z,26.70
2018-05-29T23:39:56.158Z,26.70
2018-05-29T23:42:23.610Z,26.70
2018-05-29T23:44:51.176Z,26.70
2018-05-29T23:47:18.731Z,26.70
2018-05-29T23:49:46.174Z,26.70
2018-05-29T23:52:13.642Z,26.70
2018-05-29T23:54:41.196Z,26.70
2018-05-29T23:57:08.647Z,26.70
2018-05-29T23:59:36.102Z,26.70
